createdAt,value
2018-11-25T00:00:25.851Z,98022.36
2018-11-25T00:02:55.454Z,98018.17
2018-11-25T00:05:25.221Z,98023.11
2018-11-25T00:07:54.833Z,98010.45
2018-11-25T00:10:24.435Z,97998.48
2018-11-25T00:12:54.252Z,97994.34
2018-11-25T00:15:23.846Z,97993.46
2018-11-25T00:17:53.532Z,97995.75
2018-11-25T00:20:23.216Z,97985.94
2018-11-25T00:22:53.242Z,97983.19
2018-11-25T00:25:22.951Z,97986.44
2018-11-25T00:27:52.539Z,97977.66
2018-11-25T00:30:22.276Z,97976.11
2018-11-25T00:32:51.928Z,97968.54
2018-11-25T00:35:21.545Z,97969.94
2018-11-25T00:37:51.143Z,97968.54
2018-11-25T00:40:20.731Z,97960.64
2018-11-25T00:45:28.433Z,97957.13
2018-11-25T00:47:58.026Z,97949.55
2018-11-25T00:50:27.682Z,97954.06
2018-11-25T00:52:57.263Z,97953.80
2018-11-25T00:55:26.907Z,97958.53
2018-11-25T00:57:56.497Z,97943.88
2018-11-25T01:00:26.165Z,97943.09
2018-11-25T01:02:55.746Z,97933.04
2018-11-25T01:05:25.454Z,97939.19
2018-11-25T01:07:55.199Z,97942.95
2018-11-25T01:10:24.905Z,97943.05
2018-11-25T01:12:54.496Z,97945.15
2018-11-25T01:15:24.202Z,97947.32
2018-11-25T01:17:53.874Z,97950.90
2018-11-25T01:20:23.588Z,97948.17
2018-11-25T01:22:53.170Z,97949.14
2018-11-25T01:25:22.930Z,97948.72
2018-11-25T01:27:52.505Z,97945.45
2018-11-25T01:30:22.115Z,97947.59
2018-11-25T01:32:51.700Z,97941.77
2018-11-25T01:35:21.333Z,97947.12
2018-11-25T01:37:50.901Z,97951.07
2018-11-25T01:40:20.545Z,97947.34
2018-11-25T01:42:50.142Z,97949.27
2018-11-25T01:45:19.759Z,97947.00
2018-11-25T01:47:49.383Z,97937.36
2018-11-25T01:50:19.395Z,97934.42
2018-11-25T01:52:49.220Z,97929.32
2018-11-25T01:55:19.581Z,97922.99
2018-11-25T01:57:49.178Z,97916.80
2018-11-25T02:00:20.415Z,97920.53
2018-11-25T02:02:50.364Z,97912.99
2018-11-25T02:05:20.097Z,97913.83
2018-11-25T02:07:49.680Z,97905.54
2018-11-25T02:10:20.067Z,97908.77
2018-11-25T02:12:49.844Z,97907.38
2018-11-25T02:15:19.540Z,97910.85
2018-11-25T02:17:49.125Z,97908.93
2018-11-25T02:20:22.349Z,97912.03
2018-11-25T02:22:53.455Z,97915.05
2018-11-25T02:25:23.066Z,97915.13
2018-11-25T02:27:52.984Z,97921.03
2018-11-25T02:30:22.585Z,97916.68
2018-11-25T02:32:52.209Z,97921.28
2018-11-25T02:35:21.823Z,97919.11
2018-11-25T02:37:51.439Z,97915.67
2018-11-25T02:40:21.023Z,97911.86
2018-11-25T02:42:50.628Z,97902.52
2018-11-25T02:45:20.577Z,97902.65
2018-11-25T02:47:50.177Z,97895.98
2018-11-25T02:50:30.226Z,97892.09
2018-11-25T02:53:04.238Z,97886.87
2018-11-25T02:55:33.915Z,97880.30
2018-11-25T02:58:03.576Z,97880.55
2018-11-25T03:00:33.206Z,97875.06
2018-11-25T03:03:02.876Z,97874.46
2018-11-25T03:05:32.503Z,97864.47
2018-11-25T03:08:02.087Z,97865.13
2018-11-25T03:10:31.712Z,97860.69
2018-11-25T03:13:01.386Z,97858.47
2018-11-25T03:15:31.030Z,97854.66
2018-11-25T03:18:00.743Z,97853.06
2018-11-25T03:20:30.363Z,97859.35
2018-11-25T03:23:00.111Z,97857.68
2018-11-25T03:25:29.740Z,97850.36
2018-11-25T03:27:59.449Z,97856.34
2018-11-25T03:30:29.267Z,97861.78
2018-11-25T03:32:58.973Z,97846.75
2018-11-25T03:35:28.552Z,97843.95
2018-11-25T03:37:58.193Z,97846.80
2018-11-25T03:40:27.770Z,97847.97
2018-11-25T03:42:57.363Z,97847.02
2018-11-25T03:45:26.986Z,97843.91
2018-11-25T03:47:56.551Z,97841.48
2018-11-25T03:50:26.129Z,97846.46
2018-11-25T03:52:55.789Z,97840.64
2018-11-25T03:55:25.379Z,97836.92
2018-11-25T03:57:55.007Z,97835.67
2018-11-25T04:00:24.598Z,97831.86
2018-11-25T04:02:55.252Z,97831.27
2018-11-25T04:05:24.842Z,97833.03
2018-11-25T04:07:54.461Z,97827.55
2018-11-25T04:10:24.051Z,97830.84
2018-11-25T04:12:53.674Z,97833.48
2018-11-25T04:15:23.243Z,97822.23
2018-11-25T04:17:52.872Z,97825.16
2018-11-25T04:20:22.492Z,97824.37
2018-11-25T04:22:52.114Z,97820.14
2018-11-25T04:25:21.682Z,97819.77
2018-11-25T04:27:51.313Z,97818.88
2018-11-25T04:30:21.196Z,97817.25
2018-11-25T04:32:51.821Z,97818.09
2018-11-25T04:35:21.492Z,97817.25
2018-11-25T04:37:51.102Z,97815.70
2018-11-25T04:40:20.734Z,97820.60
2018-11-25T04:42:50.394Z,97826.20
2018-11-25T04:45:19.954Z,97821.64
2018-11-25T04:47:49.595Z,97820.92
2018-11-25T04:50:20.554Z,97825.19
2018-11-25T04:52:50.258Z,97819.36
2018-11-25T04:55:19.817Z,97816.05
2018-11-25T04:57:52.157Z,97813.92
2018-11-25T05:00:21.975Z,97818.14
2018-11-25T05:02:52.591Z,97822.72
2018-11-25T05:05:22.196Z,97831.96
2018-11-25T05:07:51.803Z,97830.25
2018-11-25T05:10:21.392Z,97837.13
2018-11-25T05:12:51.017Z,97839.19
2018-11-25T05:15:22.531Z,97833.66
2018-11-25T05:17:52.248Z,97839.44
2018-11-25T05:20:22.092Z,97835.29
2018-11-25T05:22:51.693Z,97828.89
2018-11-25T05:25:21.505Z,97830.22
2018-11-25T05:27:51.140Z,97831.77
2018-11-25T05:30:22.223Z,97832.95
2018-11-25T05:32:51.905Z,97824.49
2018-11-25T05:35:22.342Z,97826.66
2018-11-25T05:37:52.015Z,97826.75
2018-11-25T05:40:21.597Z,97825.58
2018-11-25T05:42:51.205Z,97830.23
2018-11-25T05:45:21.281Z,97832.44
2018-11-25T05:47:50.947Z,97830.77
2018-11-25T05:50:20.839Z,97825.29
2018-11-25T05:52:50.479Z,97823.20
2018-11-25T05:55:20.070Z,97820.60
2018-11-25T05:57:49.695Z,97819.63
2018-11-25T06:00:27.450Z,97815.00
2018-11-25T06:02:57.014Z,97810.64
2018-11-25T06:05:26.731Z,97804.78
2018-11-25T06:07:56.348Z,97803.44
2018-11-25T06:10:26.277Z,97813.98
2018-11-25T06:12:55.877Z,97809.88
2018-11-25T06:15:25.621Z,97804.40
2018-11-25T06:17:55.215Z,97808.59
2018-11-25T06:20:24.849Z,97806.79
2018-11-25T06:22:54.453Z,97801.34
2018-11-25T06:25:24.069Z,97801.84
2018-11-25T06:27:53.641Z,97802.23
2018-11-25T06:30:23.295Z,97802.64
2018-11-25T06:32:52.884Z,97803.44
2018-11-25T06:35:22.516Z,97804.64
2018-11-25T06:37:52.073Z,97798.33
2018-11-25T06:40:21.944Z,97798.20
2018-11-25T06:42:51.562Z,97794.85
2018-11-25T06:45:23.263Z,97798.20
2018-11-25T06:47:53.398Z,97794.02
2018-11-25T06:50:23.161Z,97791.47
2018-11-25T06:52:52.773Z,97792.66
2018-11-25T06:55:22.454Z,97794.34
2018-11-25T06:57:52.026Z,97791.88
2018-11-25T07:00:23.299Z,97787.31
2018-11-25T07:02:52.973Z,97785.32
2018-11-25T07:05:22.645Z,97786.66
2018-11-25T07:07:52.259Z,97793.06
2018-11-25T07:10:23.039Z,97791.94
2018-11-25T07:12:54.888Z,97789.17
2018-11-25T07:15:24.625Z,97789.17
2018-11-25T07:17:54.185Z,97787.96
2018-11-25T07:20:23.940Z,97791.22
2018-11-25T07:22:54.203Z,97788.70
2018-11-25T07:25:24.468Z,97795.03
2018-11-25T07:27:54.659Z,97794.36
2018-11-25T07:30:26.725Z,97791.52
2018-11-25T07:32:56.692Z,97793.19
2018-11-25T07:35:27.931Z,97790.05
2018-11-25T07:37:57.610Z,97786.28
2018-11-25T07:40:27.687Z,97785.26
2018-11-25T07:42:57.292Z,97790.39
2018-11-25T07:45:30.489Z,97789.67
2018-11-25T07:47:57.071Z,97786.84
2018-11-25T07:50:26.702Z,97791.52
2018-11-25T07:52:56.292Z,97787.11
2018-11-25T07:55:26.674Z,97786.38
2018-11-25T07:57:58.283Z,97784.28
2018-11-25T08:00:28.346Z,97787.30
2018-11-25T08:02:57.931Z,97793.38
2018-11-25T08:05:28.539Z,97794.28
2018-11-25T08:07:58.539Z,97797.58
2018-11-25T08:10:28.189Z,97805.87
2018-11-25T08:12:57.804Z,97803.71
2018-11-25T08:15:27.505Z,97805.91
2018-11-25T08:17:57.122Z,97807.64
2018-11-25T08:20:26.799Z,97803.71
2018-11-25T08:22:56.394Z,97805.65
2018-11-25T08:25:26.035Z,97803.55
2018-11-25T08:27:55.601Z,97803.97
2018-11-25T08:30:25.534Z,97805.30
2018-11-25T08:32:55.211Z,97810.09
2018-11-25T08:35:24.800Z,97812.52
2018-11-25T08:37:54.383Z,97814.22
2018-11-25T08:40:25.781Z,97812.37
2018-11-25T08:42:55.409Z,97811.75
2018-11-25T08:45:25.303Z,97813.91
2018-11-25T08:47:54.883Z,97810.66
2018-11-25T08:50:24.532Z,97811.41
2018-11-25T08:52:54.513Z,97807.03
2018-11-25T08:55:26.226Z,97801.77
2018-11-25T08:57:56.294Z,97802.84
2018-11-25T09:00:27.442Z,97802.95
2018-11-25T09:02:57.693Z,97801.27
2018-11-25T09:05:27.764Z,97798.75
2018-11-25T09:07:57.397Z,97797.89
2018-11-25T09:10:27.414Z,97801.32
2018-11-25T09:12:58.452Z,97790.73
2018-11-25T09:15:30.011Z,97793.17
2018-11-25T09:17:59.928Z,97789.94
2018-11-25T09:20:29.605Z,97786.31
2018-11-25T09:22:59.237Z,97778.94
2018-11-25T09:25:31.464Z,97777.90
2018-11-25T09:28:03.261Z,97768.48
2018-11-25T09:30:33.893Z,97769.66
2018-11-25T09:33:03.532Z,97766.53
2018-11-25T09:35:33.273Z,97767.95
2018-11-25T09:38:02.898Z,97767.05
2018-11-25T09:40:32.561Z,97762.38
2018-11-25T09:43:02.165Z,97765.58
2018-11-25T09:45:31.847Z,97761.89
2018-11-25T09:48:01.468Z,97755.60
2018-11-25T09:50:31.062Z,97752.58
2018-11-25T09:53:00.607Z,97748.92
2018-11-25T09:55:30.262Z,97750.08
2018-11-25T09:58:01.282Z,97746.94
2018-11-25T10:00:32.772Z,97747.00
2018-11-25T10:03:02.988Z,97740.84
2018-11-25T10:05:32.603Z,97738.41
2018-11-25T10:08:02.167Z,97735.52
2018-11-25T10:10:31.838Z,97732.06
2018-11-25T10:13:01.482Z,97720.34
2018-11-25T10:15:31.616Z,97721.00
2018-11-25T10:18:01.178Z,97714.64
2018-11-25T10:20:32.286Z,97704.98
2018-11-25T10:23:01.907Z,97707.02
2018-11-25T10:25:31.507Z,97697.36
2018-11-25T10:28:01.095Z,97702.09
2018-11-25T10:30:31.621Z,97697.95
2018-11-25T10:33:06.490Z,97694.59
2018-11-25T10:35:36.051Z,97691.64
2018-11-25T10:38:06.293Z,97687.44
2018-11-25T10:40:35.864Z,97671.50
2018-11-25T10:43:05.580Z,97596.64
2018-11-25T10:45:35.167Z,97539.91
2018-11-25T10:48:04.942Z,97533.98
2018-11-25T10:50:34.639Z,97501.80
2018-11-25T10:53:04.280Z,97498.55
2018-11-25T10:55:33.992Z,97509.53
2018-11-25T10:58:03.598Z,97528.66
2018-11-25T11:00:40.346Z,97549.82
2018-11-25T11:03:16.170Z,97496.77
2018-11-25T11:05:50.891Z,97495.30
2018-11-25T11:08:20.496Z,97551.45
2018-11-25T11:10:50.181Z,97568.06
2018-11-25T11:13:19.805Z,97600.83
2018-11-25T11:15:49.486Z,97607.96
2018-11-25T11:18:19.123Z,97626.88
2018-11-25T11:20:48.840Z,97621.41
2018-11-25T11:23:18.463Z,97598.64
2018-11-25T11:25:48.097Z,97583.91
2018-11-25T11:28:17.698Z,97577.44
2018-11-25T11:30:48.350Z,97586.11
2018-11-25T11:33:17.918Z,97605.88
2018-11-25T11:35:47.520Z,97604.62
2018-11-25T11:38:17.094Z,97617.25
2018-11-25T11:40:46.799Z,97624.35
2018-11-25T11:43:16.410Z,97643.47
2018-11-25T11:45:46.051Z,97647.38
2018-11-25T11:48:15.615Z,97642.42
2018-11-25T11:50:45.288Z,97643.63
2018-11-25T11:53:14.982Z,97646.63
2018-11-25T11:55:44.660Z,97643.45
2018-11-25T11:58:14.250Z,97649.48
2018-11-25T12:00:43.921Z,97646.16
2018-11-25T12:03:13.604Z,97649.61
2018-11-25T12:05:43.265Z,97644.92
2018-11-25T12:08:12.886Z,97645.40
2018-11-25T12:10:42.570Z,97637.75
2018-11-25T12:13:12.174Z,97656.36
2018-11-25T12:15:41.863Z,97666.77
2018-11-25T12:18:11.589Z,97671.14
2018-11-25T12:20:41.337Z,97672.00
2018-11-25T12:23:10.983Z,97670.65
2018-11-25T12:25:40.595Z,97679.04
2018-11-25T12:28:10.232Z,97674.84
2018-11-25T12:30:39.923Z,97682.40
2018-11-25T12:33:09.519Z,97676.59
2018-11-25T12:35:39.144Z,97679.14
2018-11-25T12:38:08.754Z,97675.73
2018-11-25T12:40:38.439Z,97678.86
2018-11-25T12:43:08.399Z,97681.95
2018-11-25T12:45:38.073Z,97679.34
2018-11-25T12:48:07.911Z,97674.38
2018-11-25T12:50:37.617Z,97676.78
2018-11-25T12:53:07.474Z,97677.31
2018-11-25T12:55:37.075Z,97675.63
2018-11-25T12:58:06.643Z,97669.70
2018-11-25T13:00:40.451Z,97667.44
2018-11-25T13:03:11.990Z,97665.03
2018-11-25T13:05:46.275Z,97661.32
2018-11-25T13:08:13.261Z,97653.70
2018-11-25T13:10:43.043Z,97649.48
2018-11-25T13:13:13.152Z,97649.95
2018-11-25T13:15:42.745Z,97649.09
2018-11-25T13:18:12.321Z,97643.52
2018-11-25T13:20:41.966Z,97648.97
2018-11-25T13:23:11.527Z,97650.16
2018-11-25T13:25:41.169Z,97643.88
2018-11-25T13:28:10.742Z,97648.06
2018-11-25T13:30:40.389Z,97653.05
2018-11-25T13:33:09.958Z,97651.00
2018-11-25T13:35:40.850Z,97648.71
2018-11-25T13:38:10.461Z,97657.53
2018-11-25T13:40:40.161Z,97652.23
2018-11-25T13:43:09.774Z,97654.27
2018-11-25T13:45:39.359Z,97652.91
2018-11-25T13:48:09.012Z,97640.36
2018-11-25T13:50:38.703Z,97649.66
2018-11-25T13:53:08.348Z,97650.77
2018-11-25T13:55:38.033Z,97655.75
2018-11-25T13:58:07.825Z,97650.73
2018-11-25T14:00:44.010Z,97655.42
2018-11-25T14:03:16.684Z,97644.90
2018-11-25T14:05:53.208Z,97646.32
2018-11-25T14:08:15.957Z,97646.23
2018-11-25T14:10:45.594Z,97648.25
2018-11-25T14:13:15.158Z,97645.62
2018-11-25T14:15:44.775Z,97643.52
2018-11-25T14:18:14.359Z,97641.42
2018-11-25T14:20:44.001Z,97631.31
2018-11-25T14:23:13.549Z,97629.58
2018-11-25T14:25:43.233Z,97634.19
2018-11-25T14:28:14.870Z,97629.07
2018-11-25T14:30:44.527Z,97621.92
2018-11-25T14:33:14.099Z,97621.48
2018-11-25T14:35:43.743Z,97626.02
2018-11-25T14:38:13.305Z,97622.19
2018-11-25T14:40:42.894Z,97620.58
2018-11-25T14:43:12.453Z,97615.97
2018-11-25T14:45:42.166Z,97611.78
2018-11-25T14:48:11.778Z,97614.27
2018-11-25T14:50:41.476Z,97609.59
2018-11-25T14:53:22.890Z,97608.80
2018-11-25T14:55:52.614Z,97602.94
2018-11-25T14:58:22.374Z,97604.86
2018-11-25T15:00:51.992Z,97603.28
2018-11-25T15:03:21.619Z,97601.16
2018-11-25T15:05:51.266Z,97595.03
2018-11-25T15:08:25.886Z,97596.32
2018-11-25T15:10:55.494Z,97592.55
2018-11-25T15:13:25.163Z,97588.76
2018-11-25T15:15:55.869Z,97591.72
2018-11-25T15:18:25.478Z,97585.31
2018-11-25T15:20:55.077Z,97597.86
2018-11-25T15:23:24.699Z,97588.66
2018-11-25T15:25:56.538Z,97590.81
2018-11-25T15:28:26.245Z,97586.42
2018-11-25T15:30:55.884Z,97580.33
2018-11-25T15:33:25.677Z,97582.80
2018-11-25T15:35:55.290Z,97576.56
2018-11-25T15:38:25.052Z,97571.02
2018-11-25T15:40:54.684Z,97567.25
2018-11-25T15:43:24.292Z,97566.88
2018-11-25T15:45:53.869Z,97573.98
2018-11-25T15:48:27.028Z,97574.86
2018-11-25T15:50:56.590Z,97577.36
2018-11-25T15:53:26.232Z,97580.39
2018-11-25T15:55:58.266Z,97577.53
2018-11-25T15:58:27.994Z,97573.28
2018-11-25T16:00:57.582Z,97578.23
2018-11-25T16:03:27.214Z,97579.10
2018-11-25T16:06:33.622Z,97577.05
2018-11-25T16:09:03.279Z,97571.09
2018-11-25T16:11:32.960Z,97567.33
2018-11-25T16:14:02.587Z,97560.95
2018-11-25T16:16:32.192Z,97556.41
2018-11-25T16:19:01.803Z,97554.67
2018-11-25T16:21:31.925Z,97563.07
2018-11-25T16:24:01.546Z,97560.56
2018-11-25T16:26:34.504Z,97564.84
2018-11-25T16:29:12.654Z,97560.63
2018-11-25T16:31:42.254Z,97564.81
2018-11-25T16:34:11.923Z,97569.34
2018-11-25T16:36:41.507Z,97568.58
2018-11-25T16:39:11.893Z,97567.36
2018-11-25T16:41:41.503Z,97568.13
2018-11-25T16:44:11.193Z,97571.50
2018-11-25T16:46:40.794Z,97562.72
2018-11-25T16:49:10.407Z,97557.60
2018-11-25T16:54:37.434Z,97545.16
2018-11-25T16:57:07.180Z,97544.67
2018-11-25T16:59:36.822Z,97550.56
2018-11-25T17:02:06.678Z,97546.80
2018-11-25T17:04:36.300Z,97550.66
2018-11-25T17:07:06.562Z,97551.92
2018-11-25T17:09:36.213Z,97546.13
2018-11-25T17:12:06.154Z,97549.89
2018-11-25T17:14:35.852Z,97549.09
2018-11-25T17:17:05.534Z,97544.91
2018-11-25T17:19:35.172Z,97543.65
2018-11-25T17:22:04.861Z,97547.41
2018-11-25T17:24:34.487Z,97554.20
2018-11-25T17:27:04.166Z,97552.91
2018-11-25T17:29:33.779Z,97558.39
2018-11-25T17:32:03.401Z,97561.64
2018-11-25T17:34:33.011Z,97553.27
2018-11-25T17:37:02.690Z,97554.14
2018-11-25T17:39:32.369Z,97557.45
2018-11-25T17:42:02.101Z,97560.90
2018-11-25T17:44:31.731Z,97552.47
2018-11-25T17:47:01.408Z,97550.73
2018-11-25T17:49:31.019Z,97549.92
2018-11-25T17:52:00.764Z,97545.70
2018-11-25T17:54:30.364Z,97539.85
2018-11-25T17:57:00.034Z,97537.34
2018-11-25T17:59:29.632Z,97546.58
2018-11-25T18:01:59.417Z,97544.42
2018-11-25T18:04:28.998Z,97541.01
2018-11-25T18:06:58.646Z,97542.75
2018-11-25T18:09:28.259Z,97539.75
2018-11-25T18:11:57.873Z,97543.13
2018-11-25T18:14:27.514Z,97534.34
2018-11-25T18:16:57.185Z,97534.73
2018-11-25T18:19:26.781Z,97532.19
2018-11-25T18:22:02.948Z,97532.16
2018-11-25T18:24:32.576Z,97530.10
2018-11-25T18:27:02.271Z,97532.74
2018-11-25T18:29:31.906Z,97533.09
2018-11-25T18:32:01.590Z,97532.22
2018-11-25T18:34:31.233Z,97543.62
2018-11-25T18:37:00.883Z,97547.83
2018-11-25T18:39:30.482Z,97543.20
2018-11-25T18:42:00.336Z,97542.01
2018-11-25T18:44:30.233Z,97541.11
2018-11-25T18:46:59.930Z,97543.20
2018-11-25T18:49:29.842Z,97545.36
2018-11-25T18:52:05.063Z,97547.06
2018-11-25T18:54:29.120Z,97546.58
2018-11-25T18:56:58.788Z,97538.27
2018-11-25T18:59:28.406Z,97539.56
2018-11-25T19:02:05.851Z,97532.29
2018-11-25T19:04:35.478Z,97532.29
2018-11-25T19:07:05.524Z,97525.08
2018-11-25T19:09:35.139Z,97525.40
2018-11-25T19:12:05.237Z,97519.55
2018-11-25T19:14:34.882Z,97514.98
2018-11-25T19:17:04.662Z,97511.60
2018-11-25T19:19:34.296Z,97515.33
2018-11-25T19:22:03.948Z,97510.70
2018-11-25T19:24:33.601Z,97509.45
2018-11-25T19:27:03.225Z,97501.98
2018-11-25T19:29:33.002Z,97506.97
2018-11-25T19:32:02.673Z,97507.39
2018-11-25T19:34:32.231Z,97499.41
2018-11-25T19:37:01.995Z,97503.23
2018-11-25T19:39:31.570Z,97501.11
2018-11-25T19:42:01.200Z,97506.94
2018-11-25T19:44:30.812Z,97503.45
2018-11-25T19:47:00.539Z,97509.72
2018-11-25T19:49:30.196Z,97509.63
2018-11-25T19:51:59.813Z,97508.78
2018-11-25T19:54:29.401Z,97509.63
2018-11-25T19:56:59.066Z,97512.02
2018-11-25T19:59:28.662Z,97509.61
2018-11-25T20:01:58.265Z,97509.55
2018-11-25T20:04:27.888Z,97511.34
2018-11-25T20:06:57.578Z,97509.31
2018-11-25T20:09:30.577Z,97504.94
2018-11-25T20:12:00.150Z,97505.81
2018-11-25T20:14:29.719Z,97508.48
2018-11-25T20:17:04.383Z,97508.32
2018-11-25T20:19:33.949Z,97504.23
2018-11-25T20:22:09.093Z,97504.49
2018-11-25T20:24:38.673Z,97506.06
2018-11-25T20:27:13.546Z,97498.54
2018-11-25T20:29:43.131Z,97496.77
2018-11-25T20:32:18.108Z,97495.83
2018-11-25T20:34:47.696Z,97496.98
2018-11-25T20:37:17.323Z,97495.16
2018-11-25T20:39:46.934Z,97494.28
2018-11-25T20:42:16.492Z,97494.28
2018-11-25T20:44:46.147Z,97492.16
2018-11-25T20:47:15.714Z,97497.66
2018-11-25T20:49:45.314Z,97494.28
2018-11-25T20:52:20.035Z,97491.78
2018-11-25T20:54:49.609Z,97496.79
2018-11-25T20:57:19.163Z,97497.97
2018-11-25T20:59:48.797Z,97489.20
2018-11-25T21:02:20.345Z,97490.10
2018-11-25T21:04:48.006Z,97490.83
2018-11-25T21:07:17.642Z,97490.79
2018-11-25T21:09:47.211Z,97492.11
2018-11-25T21:12:16.844Z,97488.36
2018-11-25T21:14:46.446Z,97488.36
2018-11-25T21:17:16.070Z,97486.72
2018-11-25T21:19:45.774Z,97482.85
2018-11-25T21:22:16.660Z,97486.64
2018-11-25T21:24:46.302Z,97481.67
2018-11-25T21:27:15.931Z,97477.08
2018-11-25T21:29:46.050Z,97478.82
2018-11-25T21:32:15.799Z,97478.97
2018-11-25T21:34:46.036Z,97472.70
2018-11-25T21:37:15.985Z,97478.93
2018-11-25T21:39:45.912Z,97477.67
2018-11-25T21:42:15.826Z,97483.56
2018-11-25T21:44:45.424Z,97484.81
2018-11-25T21:47:15.292Z,97482.77
2018-11-25T21:49:45.331Z,97481.48
2018-11-25T21:52:15.302Z,97481.51
2018-11-25T21:54:45.058Z,97487.33
2018-11-25T21:57:14.760Z,97478.62
2018-11-25T21:59:44.355Z,97481.92
2018-11-25T22:02:14.005Z,97485.16
2018-11-25T22:04:43.755Z,97496.20
2018-11-25T22:07:13.534Z,97496.97
2018-11-25T22:09:43.205Z,97493.21
2018-11-25T22:12:12.921Z,97498.61
2018-11-25T22:14:42.634Z,97488.61
2018-11-25T22:17:12.414Z,97490.28
2018-11-25T22:19:42.100Z,97493.73
2018-11-25T22:22:11.781Z,97490.70
2018-11-25T22:24:41.646Z,97495.72
2018-11-25T22:27:11.290Z,97497.84
2018-11-25T22:29:41.147Z,97502.45
2018-11-25T22:32:10.886Z,97503.34
2018-11-25T22:34:40.560Z,97504.88
2018-11-25T22:37:10.615Z,97500.66
2018-11-25T22:39:40.490Z,97508.22
2018-11-25T22:42:10.403Z,97510.84
2018-11-25T22:44:40.096Z,97504.56
2018-11-25T22:47:09.795Z,97515.85
2018-11-25T22:49:39.696Z,97520.38
2018-11-25T22:52:09.294Z,97521.63
2018-11-25T22:54:39.083Z,97526.23
2018-11-25T22:57:08.745Z,97521.59
2018-11-25T22:59:38.457Z,97527.06
2018-11-25T23:02:08.055Z,97526.16
2018-11-25T23:04:54.641Z,97529.99
2018-11-25T23:07:24.247Z,97525.05
2018-11-25T23:09:53.891Z,97535.65
2018-11-25T23:12:23.460Z,97541.42
2018-11-25T23:14:53.125Z,97538.53
2018-11-25T23:17:22.774Z,97536.48
2018-11-25T23:19:52.405Z,97532.65
2018-11-25T23:22:22.000Z,97536.74
2018-11-25T23:24:51.725Z,97536.91
2018-11-25T23:27:21.276Z,97538.58
2018-11-25T23:29:50.933Z,97535.69
2018-11-25T23:32:23.301Z,97536.78
2018-11-25T23:34:52.474Z,97532.11
2018-11-25T23:37:21.626Z,97541.22
2018-11-25T23:39:50.778Z,97540.00
2018-11-25T23:42:19.929Z,97537.91
2018-11-25T23:44:49.097Z,97545.02
2018-11-25T23:47:18.248Z,97543.64
2018-11-25T23:49:47.401Z,97544.60
2018-11-25T23:52:16.542Z,97543.39
2018-11-25T23:54:45.713Z,97544.94
2018-11-25T23:57:14.870Z,97544.85
2018-11-25T23:59:44.026Z,97539.46
